sensor_id;sensor_type;location;lat;lon;timestamp;P1;durP1;ratioP1;P2;durP2;ratioP2
35959;SDS011;22043;50.970;7.192;2024-01-07T00:00:47;12.07;;;4.28;;
35959;SDS011;22043;50.970;7.192;2024-01-07T00:03:13;9.25;;;4.00;;
35959;SDS011;22043;50.970;7.192;2024-01-07T00:05:38;8.52;;;3.95;;
35959;SDS011;22043;50.970;7.192;2024-01-07T00:08:03;8.38;;;3.58;;
35959;SDS011;22043;50.970;7.192;2024-01-07T00:10:29;8.73;;;3.40;;
35959;SDS011;22043;50.970;7.192;2024-01-07T00:12:54;7.15;;;3.35;;
35959;SDS011;22043;50.970;7.192;2024-01-07T00:15:20;9.05;;;3.53;;
35959;SDS011;22043;50.970;7.192;2024-01-07T00:17:45;8.40;;;3.83;;
35959;SDS011;22043;50.970;7.192;2024-01-07T00:20:11;9.70;;;3.75;;
35959;SDS011;22043;50.970;7.192;2024-01-07T00:22:36;8.50;;;4.00;;
35959;SDS011;22043;50.970;7.192;2024-01-07T00:25:02;9.43;;;3.67;;
35959;SDS011;22043;50.970;7.192;2024-01-07T00:27:27;9.57;;;3.85;;
35959;SDS011;22043;50.970;7.192;2024-01-07T00:29:53;10.27;;;4.30;;
35959;SDS011;22043;50.970;7.192;2024-01-07T00:32:18;6.60;;;2.97;;
35959;SDS011;22043;50.970;7.192;2024-01-07T00:34:43;9.23;;;3.47;;
35959;SDS011;22043;50.970;7.192;2024-01-07T00:37:09;6.65;;;2.78;;
35959;SDS011;22043;50.970;7.192;2024-01-07T00:39:34;9.07;;;3.22;;
35959;SDS011;22043;50.970;7.192;2024-01-07T00:42:00;7.22;;;3.60;;
35959;SDS011;22043;50.970;7.192;2024-01-07T00:44:25;8.85;;;3.88;;
35959;SDS011;22043;50.970;7.192;2024-01-07T00:46:50;6.90;;;3.00;;
35959;SDS011;22043;50.970;7.192;2024-01-07T00:49:16;9.23;;;3.78;;
35959;SDS011;22043;50.970;7.192;2024-01-07T00:51:42;6.97;;;3.40;;
35959;SDS011;22043;50.970;7.192;2024-01-07T00:54:07;7.85;;;3.17;;
35959;SDS011;22043;50.970;7.192;2024-01-07T00:56:33;6.05;;;3.08;;
35959;SDS011;22043;50.970;7.192;2024-01-07T00:58:59;6.63;;;3.22;;
35959;SDS011;22043;50.970;7.192;2024-01-07T01:01:24;8.77;;;4.07;;
35959;SDS011;22043;50.970;7.192;2024-01-07T01:03:50;9.38;;;3.75;;
35959;SDS011;22043;50.970;7.192;2024-01-07T01:06:15;8.68;;;3.58;;
35959;SDS011;22043;50.970;7.192;2024-01-07T01:08:41;7.32;;;3.20;;
35959;SDS011;22043;50.970;7.192;2024-01-07T01:11:08;7.43;;;3.38;;
35959;SDS011;22043;50.970;7.192;2024-01-07T01:13:35;7.47;;;3.40;;
35959;SDS011;22043;50.970;7.192;2024-01-07T01:16:01;7.80;;;3.33;;
35959;SDS011;22043;50.970;7.192;2024-01-07T01:18:26;6.00;;;3.33;;
35959;SDS011;22043;50.970;7.192;2024-01-07T01:20:51;9.88;;;4.25;;
35959;SDS011;22043;50.970;7.192;2024-01-07T01:23:17;6.30;;;3.25;;
35959;SDS011;22043;50.970;7.192;2024-01-07T01:25:43;8.15;;;3.85;;
35959;SDS011;22043;50.970;7.192;2024-01-07T01:28:09;9.40;;;3.60;;
35959;SDS011;22043;50.970;7.192;2024-01-07T01:30:34;9.15;;;3.92;;
35959;SDS011;22043;50.970;7.192;2024-01-07T01:33:00;9.45;;;5.15;;
35959;SDS011;22043;50.970;7.192;2024-01-07T01:35:27;9.40;;;4.43;;
35959;SDS011;22043;50.970;7.192;2024-01-07T01:37:52;8.95;;;4.32;;
35959;SDS011;22043;50.970;7.192;2024-01-07T01:40:19;7.45;;;3.30;;
35959;SDS011;22043;50.970;7.192;2024-01-07T01:42:45;9.48;;;4.32;;
35959;SDS011;22043;50.970;7.192;2024-01-07T01:45:13;10.50;;;4.38;;
35959;SDS011;22043;50.970;7.192;2024-01-07T01:47:39;11.35;;;4.90;;
35959;SDS011;22043;50.970;7.192;2024-01-07T01:50:05;10.20;;;4.88;;
35959;SDS011;22043;50.970;7.192;2024-01-07T01:52:31;10.05;;;5.28;;
35959;SDS011;22043;50.970;7.192;2024-01-07T01:54:57;8.63;;;4.50;;
35959;SDS011;22043;50.970;7.192;2024-01-07T01:57:24;11.20;;;5.40;;
35959;SDS011;22043;50.970;7.192;2024-01-07T01:59:54;12.82;;;6.10;;
35959;SDS011;22043;50.970;7.192;2024-01-07T02:02:20;10.68;;;4.95;;
35959;SDS011;22043;50.970;7.192;2024-01-07T02:04:46;12.70;;;5.90;;
35959;SDS011;22043;50.970;7.192;2024-01-07T02:07:11;11.38;;;5.15;;
35959;SDS011;22043;50.970;7.192;2024-01-07T02:09:38;10.75;;;5.20;;
35959;SDS011;22043;50.970;7.192;2024-01-07T02:12:05;10.55;;;5.82;;
35959;SDS011;22043;50.970;7.192;2024-01-07T02:14:31;10.60;;;6.00;;
35959;SDS011;22043;50.970;7.192;2024-01-07T02:16:57;11.45;;;5.68;;
35959;SDS011;22043;50.970;7.192;2024-01-07T02:19:22;10.70;;;5.13;;
35959;SDS011;22043;50.970;7.192;2024-01-07T02:21:51;10.38;;;5.13;;
35959;SDS011;22043;50.970;7.192;2024-01-07T02:24:17;9.10;;;4.28;;
35959;SDS011;22043;50.970;7.192;2024-01-07T02:26:42;10.30;;;5.35;;
35959;SDS011;22043;50.970;7.192;2024-01-07T02:29:10;6.85;;;3.45;;
35959;SDS011;22043;50.970;7.192;2024-01-07T02:31:35;9.00;;;4.53;;
35959;SDS011;22043;50.970;7.192;2024-01-07T02:34:00;9.82;;;4.97;;
35959;SDS011;22043;50.970;7.192;2024-01-07T02:36:26;10.23;;;4.25;;
35959;SDS011;22043;50.970;7.192;2024-01-07T02:38:51;10.88;;;4.50;;
35959;SDS011;22043;50.970;7.192;2024-01-07T02:41:20;9.70;;;4.40;;
35959;SDS011;22043;50.970;7.192;2024-01-07T02:44:06;11.88;;;5.03;;
35959;SDS011;22043;50.970;7.192;2024-01-07T02:46:31;12.45;;;5.18;;
35959;SDS011;22043;50.970;7.192;2024-01-07T02:48:57;10.88;;;5.05;;
35959;SDS011;22043;50.970;7.192;2024-01-07T02:51:22;9.45;;;4.60;;
35959;SDS011;22043;50.970;7.192;2024-01-07T02:53:47;11.20;;;4.25;;
35959;SDS011;22043;50.970;7.192;2024-01-07T02:56:13;12.38;;;4.10;;
35959;SDS011;22043;50.970;7.192;2024-01-07T02:58:38;11.45;;;4.32;;
35959;SDS011;22043;50.970;7.192;2024-01-07T03:01:07;9.45;;;4.20;;
35959;SDS011;22043;50.970;7.192;2024-01-07T03:03:33;6.88;;;3.47;;
35959;SDS011;22043;50.970;7.192;2024-01-07T03:05:59;9.35;;;4.70;;
35959;SDS011;22043;50.970;7.192;2024-01-07T03:08:24;8.40;;;4.03;;
35959;SDS011;22043;50.970;7.192;2024-01-07T03:10:49;9.00;;;4.10;;
35959;SDS011;22043;50.970;7.192;2024-01-07T03:13:15;12.57;;;4.47;;
35959;SDS011;22043;50.970;7.192;2024-01-07T03:15:40;10.52;;;4.45;;
35959;SDS011;22043;50.970;7.192;2024-01-07T03:18:06;10.77;;;4.50;;
35959;SDS011;22043;50.970;7.192;2024-01-07T03:20:31;8.82;;;4.30;;
35959;SDS011;22043;50.970;7.192;2024-01-07T03:22:56;9.07;;;4.30;;
35959;SDS011;22043;50.970;7.192;2024-01-07T03:25:23;9.88;;;4.75;;
35959;SDS011;22043;50.970;7.192;2024-01-07T03:27:48;12.60;;;5.22;;
35959;SDS011;22043;50.970;7.192;2024-01-07T03:30:14;10.00;;;5.45;;
35959;SDS011;22043;50.970;7.192;2024-01-07T03:32:39;9.55;;;4.78;;
35959;SDS011;22043;50.970;7.192;2024-01-07T03:35:04;13.52;;;5.90;;
35959;SDS011;22043;50.970;7.192;2024-01-07T03:37:30;11.85;;;5.57;;
35959;SDS011;22043;50.970;7.192;2024-01-07T03:39:56;9.75;;;5.13;;
35959;SDS011;22043;50.970;7.192;2024-01-07T03:42:21;10.02;;;5.07;;
35959;SDS011;22043;50.970;7.192;2024-01-07T03:44:46;14.85;;;6.28;;
35959;SDS011;22043;50.970;7.192;2024-01-07T03:47:12;10.13;;;5.25;;
35959;SDS011;22043;50.970;7.192;2024-01-07T03:49:37;12.52;;;4.80;;
35959;SDS011;22043;50.970;7.192;2024-01-07T03:52:04;9.98;;;4.65;;
35959;SDS011;22043;50.970;7.192;2024-01-07T03:54:31;13.18;;;6.00;;
35959;SDS011;22043;50.970;7.192;2024-01-07T03:56:56;13.27;;;5.30;;
35959;SDS011;22043;50.970;7.192;2024-01-07T03:59:21;15.73;;;6.40;;
35959;SDS011;22043;50.970;7.192;2024-01-07T04:01:48;12.18;;;5.65;;
35959;SDS011;22043;50.970;7.192;2024-01-07T04:04:13;12.10;;;6.20;;
35959;SDS011;22043;50.970;7.192;2024-01-07T04:06:39;9.85;;;4.93;;
35959;SDS011;22043;50.970;7.192;2024-01-07T04:09:04;13.57;;;5.88;;
35959;SDS011;22043;50.970;7.192;2024-01-07T04:11:30;12.88;;;6.00;;
35959;SDS011;22043;50.970;7.192;2024-01-07T04:13:55;13.73;;;6.80;;
35959;SDS011;22043;50.970;7.192;2024-01-07T04:16:21;13.98;;;6.15;;
35959;SDS011;22043;50.970;7.192;2024-01-07T04:18:47;15.52;;;5.93;;
35959;SDS011;22043;50.970;7.192;2024-01-07T04:21:12;12.88;;;6.60;;
35959;SDS011;22043;50.970;7.192;2024-01-07T04:23:38;15.32;;;6.20;;
35959;SDS011;22043;50.970;7.192;2024-01-07T04:26:06;15.27;;;5.90;;
35959;SDS011;22043;50.970;7.192;2024-01-07T04:28:34;16.25;;;6.93;;
35959;SDS011;22043;50.970;7.192;2024-01-07T04:30:59;15.70;;;6.05;;
35959;SDS011;22043;50.970;7.192;2024-01-07T04:33:25;13.80;;;6.15;;
35959;SDS011;22043;50.970;7.192;2024-01-07T04:35:50;17.25;;;6.72;;
35959;SDS011;22043;50.970;7.192;2024-01-07T04:38:16;15.60;;;6.20;;
35959;SDS011;22043;50.970;7.192;2024-01-07T04:40:41;15.95;;;6.47;;
35959;SDS011;22043;50.970;7.192;2024-01-07T04:43:06;15.13;;;7.10;;
35959;SDS011;22043;50.970;7.192;2024-01-07T04:45:32;15.90;;;6.97;;
35959;SDS011;22043;50.970;7.192;2024-01-07T04:47:57;18.95;;;7.78;;
35959;SDS011;22043;50.970;7.192;2024-01-07T04:50:23;18.90;;;7.70;;
35959;SDS011;22043;50.970;7.192;2024-01-07T04:52:48;18.20;;;8.35;;
35959;SDS011;22043;50.970;7.192;2024-01-07T04:55:13;18.08;;;7.55;;
35959;SDS011;22043;50.970;7.192;2024-01-07T04:57:40;19.52;;;8.75;;
35959;SDS011;22043;50.970;7.192;2024-01-07T05:00:06;16.42;;;7.65;;
35959;SDS011;22043;50.970;7.192;2024-01-07T05:02:31;18.48;;;8.57;;
35959;SDS011;22043;50.970;7.192;2024-01-07T05:04:57;16.63;;;8.13;;
35959;SDS011;22043;50.970;7.192;2024-01-07T05:07:22;14.73;;;7.22;;
35959;SDS011;22043;50.970;7.192;2024-01-07T05:09:48;15.65;;;7.22;;
35959;SDS011;22043;50.970;7.192;2024-01-07T05:12:13;13.57;;;6.78;;
35959;SDS011;22043;50.970;7.192;2024-01-07T05:14:39;20.83;;;7.63;;
35959;SDS011;22043;50.970;7.192;2024-01-07T05:17:05;16.02;;;7.15;;
35959;SDS011;22043;50.970;7.192;2024-01-07T05:19:30;16.92;;;6.20;;
35959;SDS011;22043;50.970;7.192;2024-01-07T05:21:56;15.65;;;6.82;;
35959;SDS011;22043;50.970;7.192;2024-01-07T05:24:21;15.93;;;7.03;;
35959;SDS011;22043;50.970;7.192;2024-01-07T05:26:47;18.25;;;7.05;;
35959;SDS011;22043;50.970;7.192;2024-01-07T05:29:12;13.25;;;6.80;;
35959;SDS011;22043;50.970;7.192;2024-01-07T05:31:38;14.07;;;6.53;;
35959;SDS011;22043;50.970;7.192;2024-01-07T05:34:04;15.27;;;7.60;;
35959;SDS011;22043;50.970;7.192;2024-01-07T05:36:30;13.95;;;6.78;;
35959;SDS011;22043;50.970;7.192;2024-01-07T05:38:55;12.25;;;5.82;;
35959;SDS011;22043;50.970;7.192;2024-01-07T05:41:21;15.43;;;7.72;;
35959;SDS011;22043;50.970;7.192;2024-01-07T05:43:46;13.55;;;6.38;;
35959;SDS011;22043;50.970;7.192;2024-01-07T05:46:12;14.18;;;7.05;;
35959;SDS011;22043;50.970;7.192;2024-01-07T05:48:41;11.88;;;6.72;;
35959;SDS011;22043;50.970;7.192;2024-01-07T05:51:08;14.77;;;6.85;;
35959;SDS011;22043;50.970;7.192;2024-01-07T05:53:34;14.75;;;6.57;;
35959;SDS011;22043;50.970;7.192;2024-01-07T05:55:59;14.25;;;6.78;;
35959;SDS011;22043;50.970;7.192;2024-01-07T05:58:25;15.43;;;6.28;;
35959;SDS011;22043;50.970;7.192;2024-01-07T06:00:51;15.65;;;8.00;;
35959;SDS011;22043;50.970;7.192;2024-01-07T06:03:16;13.65;;;6.18;;
35959;SDS011;22043;50.970;7.192;2024-01-07T06:05:42;12.90;;;6.30;;
35959;SDS011;22043;50.970;7.192;2024-01-07T06:08:07;13.38;;;6.05;;
35959;SDS011;22043;50.970;7.192;2024-01-07T06:10:33;16.38;;;7.32;;
35959;SDS011;22043;50.970;7.192;2024-01-07T06:12:59;16.13;;;7.72;;
35959;SDS011;22043;50.970;7.192;2024-01-07T06:15:24;15.60;;;7.97;;
35959;SDS011;22043;50.970;7.192;2024-01-07T06:17:50;15.40;;;6.65;;
35959;SDS011;22043;50.970;7.192;2024-01-07T06:20:15;14.90;;;7.38;;
35959;SDS011;22043;50.970;7.192;2024-01-07T06:22:41;14.32;;;7.45;;
35959;SDS011;22043;50.970;7.192;2024-01-07T06:25:07;16.23;;;7.07;;
35959;SDS011;22043;50.970;7.192;2024-01-07T06:27:32;19.27;;;7.40;;
35959;SDS011;22043;50.970;7.192;2024-01-07T06:29:58;16.52;;;7.45;;
35959;SDS011;22043;50.970;7.192;2024-01-07T06:32:23;15.63;;;7.78;;
35959;SDS011;22043;50.970;7.192;2024-01-07T06:34:50;15.35;;;7.40;;
35959;SDS011;22043;50.970;7.192;2024-01-07T06:37:15;17.60;;;7.15;;
35959;SDS011;22043;50.970;7.192;2024-01-07T06:39:41;16.88;;;7.93;;
35959;SDS011;22043;50.970;7.192;2024-01-07T06:42:06;15.93;;;8.05;;
35959;SDS011;22043;50.970;7.192;2024-01-07T06:44:32;15.80;;;7.25;;
35959;SDS011;22043;50.970;7.192;2024-01-07T06:46:57;14.48;;;6.75;;
35959;SDS011;22043;50.970;7.192;2024-01-07T06:49:22;15.30;;;6.78;;
35959;SDS011;22043;50.970;7.192;2024-01-07T06:51:48;17.48;;;7.88;;
35959;SDS011;22043;50.970;7.192;2024-01-07T06:54:13;15.70;;;7.30;;
35959;SDS011;22043;50.970;7.192;2024-01-07T06:56:39;13.93;;;6.82;;
35959;SDS011;22043;50.970;7.192;2024-01-07T06:59:04;12.55;;;6.82;;
35959;SDS011;22043;50.970;7.192;2024-01-07T07:01:30;14.68;;;6.93;;
35959;SDS011;22043;50.970;7.192;2024-01-07T07:03:55;14.38;;;6.82;;
35959;SDS011;22043;50.970;7.192;2024-01-07T07:06:21;13.07;;;6.20;;
35959;SDS011;22043;50.970;7.192;2024-01-07T07:08:46;12.52;;;6.90;;
35959;SDS011;22043;50.970;7.192;2024-01-07T07:11:11;15.90;;;6.95;;
35959;SDS011;22043;50.970;7.192;2024-01-07T07:13:37;15.38;;;6.65;;
35959;SDS011;22043;50.970;7.192;2024-01-07T07:16:03;12.43;;;5.82;;
35959;SDS011;22043;50.970;7.192;2024-01-07T07:18:29;14.90;;;7.15;;
35959;SDS011;22043;50.970;7.192;2024-01-07T07:20:54;15.88;;;7.20;;
35959;SDS011;22043;50.970;7.192;2024-01-07T07:23:19;13.32;;;6.53;;
35959;SDS011;22043;50.970;7.192;2024-01-07T07:25:45;13.02;;;6.70;;
35959;SDS011;22043;50.970;7.192;2024-01-07T07:28:11;13.02;;;6.35;;
35959;SDS011;22043;50.970;7.192;2024-01-07T07:30:36;16.35;;;6.72;;
35959;SDS011;22043;50.970;7.192;2024-01-07T07:33:02;12.43;;;6.43;;
35959;SDS011;22043;50.970;7.192;2024-01-07T07:35:28;13.27;;;5.63;;
35959;SDS011;22043;50.970;7.192;2024-01-07T07:37:53;13.88;;;6.30;;
35959;SDS011;22043;50.970;7.192;2024-01-07T07:40:19;13.75;;;6.00;;
35959;SDS011;22043;50.970;7.192;2024-01-07T07:42:44;15.38;;;5.93;;
35959;SDS011;22043;50.970;7.192;2024-01-07T07:45:09;12.68;;;6.65;;
35959;SDS011;22043;50.970;7.192;2024-01-07T07:47:36;11.05;;;5.70;;
35959;SDS011;22043;50.970;7.192;2024-01-07T07:50:01;13.90;;;6.40;;
35959;SDS011;22043;50.970;7.192;2024-01-07T07:52:27;13.90;;;6.03;;
35959;SDS011;22043;50.970;7.192;2024-01-07T07:54:53;12.05;;;5.70;;
35959;SDS011;22043;50.970;7.192;2024-01-07T07:57:19;10.77;;;5.57;;
35959;SDS011;22043;50.970;7.192;2024-01-07T07:59:50;10.25;;;5.68;;
35959;SDS011;22043;50.970;7.192;2024-01-07T08:02:15;11.20;;;5.50;;
35959;SDS011;22043;50.970;7.192;2024-01-07T08:04:41;10.93;;;5.22;;
35959;SDS011;22043;50.970;7.192;2024-01-07T08:07:08;12.73;;;6.80;;
35959;SDS011;22043;50.970;7.192;2024-01-07T08:09:33;12.05;;;5.78;;
35959;SDS011;22043;50.970;7.192;2024-01-07T08:12:02;11.80;;;5.45;;
35959;SDS011;22043;50.970;7.192;2024-01-07T08:14:28;14.10;;;5.75;;
35959;SDS011;22043;50.970;7.192;2024-01-07T08:16:54;11.05;;;5.85;;
35959;SDS011;22043;50.970;7.192;2024-01-07T08:19:19;13.15;;;6.15;;
35959;SDS011;22043;50.970;7.192;2024-01-07T08:21:45;13.93;;;6.13;;
35959;SDS011;22043;50.970;7.192;2024-01-07T08:24:11;13.95;;;6.78;;
35959;SDS011;22043;50.970;7.192;2024-01-07T08:26:36;13.60;;;6.35;;
35959;SDS011;22043;50.970;7.192;2024-01-07T08:29:02;13.95;;;6.93;;
35959;SDS011;22043;50.970;7.192;2024-01-07T08:31:28;11.95;;;6.30;;
35959;SDS011;22043;50.970;7.192;2024-01-07T08:33:53;15.77;;;6.57;;
35959;SDS011;22043;50.970;7.192;2024-01-07T08:36:19;16.10;;;6.75;;
35959;SDS011;22043;50.970;7.192;2024-01-07T08:38:44;16.77;;;6.30;;
35959;SDS011;22043;50.970;7.192;2024-01-07T08:41:11;13.13;;;6.88;;
35959;SDS011;22043;50.970;7.192;2024-01-07T08:43:36;14.98;;;6.70;;
35959;SDS011;22043;50.970;7.192;2024-01-07T08:46:03;13.27;;;6.82;;
35959;SDS011;22043;50.970;7.192;2024-01-07T08:48:29;15.88;;;7.78;;
35959;SDS011;22043;50.970;7.192;2024-01-07T08:50:55;17.10;;;7.13;;
35959;SDS011;22043;50.970;7.192;2024-01-07T08:53:22;13.98;;;6.88;;
35959;SDS011;22043;50.970;7.192;2024-01-07T08:55:47;15.30;;;6.43;;
35959;SDS011;22043;50.970;7.192;2024-01-07T08:58:13;14.30;;;7.00;;
35959;SDS011;22043;50.970;7.192;2024-01-07T09:00:39;16.15;;;7.55;;
35959;SDS011;22043;50.970;7.192;2024-01-07T09:03:08;15.60;;;7.43;;
35959;SDS011;22043;50.970;7.192;2024-01-07T09:05:36;16.08;;;7.32;;
35959;SDS011;22043;50.970;7.192;2024-01-07T09:08:01;14.65;;;7.47;;
35959;SDS011;22043;50.970;7.192;2024-01-07T09:10:27;16.30;;;7.30;;
35959;SDS011;22043;50.970;7.192;2024-01-07T09:12:52;15.43;;;7.45;;
35959;SDS011;22043;50.970;7.192;2024-01-07T09:15:19;16.10;;;8.13;;
35959;SDS011;22043;50.970;7.192;2024-01-07T09:17:45;19.98;;;8.05;;
35959;SDS011;22043;50.970;7.192;2024-01-07T09:20:11;17.00;;;7.90;;
35959;SDS011;22043;50.970;7.192;2024-01-07T09:22:37;17.50;;;7.68;;
35959;SDS011;22043;50.970;7.192;2024-01-07T09:25:03;16.75;;;7.75;;
35959;SDS011;22043;50.970;7.192;2024-01-07T09:27:29;15.43;;;8.15;;
35959;SDS011;22043;50.970;7.192;2024-01-07T09:29:54;15.70;;;7.32;;
35959;SDS011;22043;50.970;7.192;2024-01-07T09:32:20;16.55;;;8.00;;
35959;SDS011;22043;50.970;7.192;2024-01-07T09:34:45;12.85;;;6.43;;
35959;SDS011;22043;50.970;7.192;2024-01-07T09:37:11;17.38;;;7.88;;
35959;SDS011;22043;50.970;7.192;2024-01-07T09:39:40;17.23;;;6.65;;
35959;SDS011;22043;50.970;7.192;2024-01-07T09:42:12;13.35;;;6.28;;
35959;SDS011;22043;50.970;7.192;2024-01-07T09:44:37;13.48;;;6.95;;
35959;SDS011;22043;50.970;7.192;2024-01-07T09:47:04;13.15;;;6.45;;
35959;SDS011;22043;50.970;7.192;2024-01-07T09:49:30;15.30;;;5.37;;
35959;SDS011;22043;50.970;7.192;2024-01-07T09:51:58;11.45;;;5.43;;
35959;SDS011;22043;50.970;7.192;2024-01-07T09:54:26;11.20;;;5.32;;
35959;SDS011;22043;50.970;7.192;2024-01-07T09:56:54;11.05;;;5.30;;
35959;SDS011;22043;50.970;7.192;2024-01-07T09:59:21;12.90;;;5.63;;
35959;SDS011;22043;50.970;7.192;2024-01-07T10:01:47;9.50;;;5.20;;
35959;SDS011;22043;50.970;7.192;2024-01-07T10:04:12;10.18;;;5.25;;
35959;SDS011;22043;50.970;7.192;2024-01-07T10:06:38;9.32;;;4.07;;
35959;SDS011;22043;50.970;7.192;2024-01-07T10:09:05;8.82;;;4.65;;
35959;SDS011;22043;50.970;7.192;2024-01-07T10:11:31;9.82;;;4.55;;
35959;SDS011;22043;50.970;7.192;2024-01-07T10:13:56;8.90;;;4.47;;
35959;SDS011;22043;50.970;7.192;2024-01-07T10:16:22;9.20;;;4.53;;
35959;SDS011;22043;50.970;7.192;2024-01-07T10:18:47;8.93;;;4.50;;
35959;SDS011;22043;50.970;7.192;2024-01-07T10:21:13;8.40;;;5.07;;
35959;SDS011;22043;50.970;7.192;2024-01-07T10:23:38;9.52;;;5.40;;
35959;SDS011;22043;50.970;7.192;2024-01-07T10:26:04;9.27;;;4.85;;
35959;SDS011;22043;50.970;7.192;2024-01-07T10:28:31;9.75;;;5.22;;
35959;SDS011;22043;50.970;7.192;2024-01-07T10:30:56;10.98;;;5.28;;
35959;SDS011;22043;50.970;7.192;2024-01-07T10:33:22;10.32;;;4.75;;
35959;SDS011;22043;50.970;7.192;2024-01-07T10:35:56;10.68;;;5.63;;
35959;SDS011;22043;50.970;7.192;2024-01-07T10:38:22;11.82;;;5.65;;
35959;SDS011;22043;50.970;7.192;2024-01-07T10:40:48;10.73;;;5.82;;
35959;SDS011;22043;50.970;7.192;2024-01-07T10:43:15;10.50;;;6.03;;
35959;SDS011;22043;50.970;7.192;2024-01-07T10:45:42;12.65;;;6.00;;
35959;SDS011;22043;50.970;7.192;2024-01-07T10:48:08;12.45;;;6.05;;
35959;SDS011;22043;50.970;7.192;2024-01-07T10:50:35;11.88;;;6.30;;
35959;SDS011;22043;50.970;7.192;2024-01-07T10:53:04;12.13;;;6.57;;
35959;SDS011;22043;50.970;7.192;2024-01-07T10:55:35;12.95;;;7.00;;
35959;SDS011;22043;50.970;7.192;2024-01-07T10:58:01;13.73;;;6.45;;
35959;SDS011;22043;50.970;7.192;2024-01-07T11:00:28;14.40;;;7.18;;
35959;SDS011;22043;50.970;7.192;2024-01-07T11:08:25;12.82;;;7.35;;
35959;SDS011;22043;50.970;7.192;2024-01-07T11:11:07;15.93;;;6.93;;
35959;SDS011;22043;50.970;7.192;2024-01-07T11:13:37;13.63;;;6.78;;
35959;SDS011;22043;50.970;7.192;2024-01-07T11:16:06;14.85;;;7.30;;
35959;SDS011;22043;50.970;7.192;2024-01-07T11:18:54;14.63;;;7.65;;
35959;SDS011;22043;50.970;7.192;2024-01-07T11:21:22;14.85;;;6.88;;
35959;SDS011;22043;50.970;7.192;2024-01-07T11:23:51;12.75;;;7.28;;
35959;SDS011;22043;50.970;7.192;2024-01-07T11:26:18;16.38;;;7.57;;
35959;SDS011;22043;50.970;7.192;2024-01-07T11:28:53;13.85;;;6.95;;
35959;SDS011;22043;50.970;7.192;2024-01-07T11:31:21;15.50;;;7.88;;
35959;SDS011;22043;50.970;7.192;2024-01-07T11:34:10;13.65;;;6.88;;
35959;SDS011;22043;50.970;7.192;2024-01-07T11:36:36;11.68;;;6.90;;
35959;SDS011;22043;50.970;7.192;2024-01-07T11:39:02;14.68;;;7.53;;
35959;SDS011;22043;50.970;7.192;2024-01-07T11:41:29;14.93;;;7.03;;
35959;SDS011;22043;50.970;7.192;2024-01-07T11:43:57;15.13;;;6.95;;
35959;SDS011;22043;50.970;7.192;2024-01-07T11:46:27;16.15;;;7.78;;
35959;SDS011;22043;50.970;7.192;2024-01-07T11:48:54;11.68;;;6.80;;
35959;SDS011;22043;50.970;7.192;2024-01-07T11:51:30;14.25;;;7.13;;
35959;SDS011;22043;50.970;7.192;2024-01-07T11:53:57;12.48;;;6.63;;
35959;SDS011;22043;50.970;7.192;2024-01-07T11:56:24;10.95;;;5.30;;
35959;SDS011;22043;50.970;7.192;2024-01-07T11:58:49;13.30;;;6.70;;
35959;SDS011;22043;50.970;7.192;2024-01-07T12:01:15;10.88;;;5.43;;
35959;SDS011;22043;50.970;7.192;2024-01-07T12:03:43;11.35;;;6.13;;
35959;SDS011;22043;50.970;7.192;2024-01-07T12:06:09;12.35;;;6.05;;
35959;SDS011;22043;50.970;7.192;2024-01-07T12:08:38;10.32;;;4.90;;
35959;SDS011;22043;50.970;7.192;2024-01-07T12:11:04;10.38;;;5.07;;
35959;SDS011;22043;50.970;7.192;2024-01-07T12:13:30;11.00;;;5.80;;
35959;SDS011;22043;50.970;7.192;2024-01-07T12:15:56;10.88;;;5.68;;
35959;SDS011;22043;50.970;7.192;2024-01-07T12:18:22;10.40;;;5.60;;
35959;SDS011;22043;50.970;7.192;2024-01-07T12:20:56;10.85;;;5.38;;
35959;SDS011;22043;50.970;7.192;2024-01-07T12:23:23;11.27;;;5.88;;
35959;SDS011;22043;50.970;7.192;2024-01-07T12:25:49;8.15;;;4.97;;
35959;SDS011;22043;50.970;7.192;2024-01-07T12:28:16;11.85;;;4.80;;
35959;SDS011;22043;50.970;7.192;2024-01-07T12:30:42;11.68;;;5.78;;
35959;SDS011;22043;50.970;7.192;2024-01-07T12:33:07;11.45;;;5.30;;
35959;SDS011;22043;50.970;7.192;2024-01-07T12:35:34;11.07;;;5.35;;
35959;SDS011;22043;50.970;7.192;2024-01-07T12:37:59;8.65;;;4.63;;
35959;SDS011;22043;50.970;7.192;2024-01-07T12:40:25;7.45;;;4.10;;
35959;SDS011;22043;50.970;7.192;2024-01-07T12:42:52;8.45;;;4.35;;
35959;SDS011;22043;50.970;7.192;2024-01-07T12:45:17;7.40;;;4.25;;
35959;SDS011;22043;50.970;7.192;2024-01-07T12:47:43;8.20;;;5.20;;
35959;SDS011;22043;50.970;7.192;2024-01-07T12:50:09;10.88;;;4.50;;
35959;SDS011;22043;50.970;7.192;2024-01-07T12:52:36;7.40;;;4.07;;
35959;SDS011;22043;50.970;7.192;2024-01-07T12:55:02;6.93;;;3.83;;
35959;SDS011;22043;50.970;7.192;2024-01-07T12:57:28;9.93;;;4.32;;
35959;SDS011;22043;50.970;7.192;2024-01-07T12:59:53;7.80;;;4.13;;
35959;SDS011;22043;50.970;7.192;2024-01-07T13:02:19;8.82;;;4.30;;
35959;SDS011;22043;50.970;7.192;2024-01-07T13:04:45;8.40;;;4.55;;
35959;SDS011;22043;50.970;7.192;2024-01-07T13:07:11;7.10;;;3.90;;
35959;SDS011;22043;50.970;7.192;2024-01-07T13:09:36;6.97;;;3.58;;
35959;SDS011;22043;50.970;7.192;2024-01-07T13:12:02;5.90;;;3.22;;
35959;SDS011;22043;50.970;7.192;2024-01-07T13:14:29;9.23;;;3.50;;
35959;SDS011;22043;50.970;7.192;2024-01-07T13:16:54;6.82;;;3.20;;
35959;SDS011;22043;50.970;7.192;2024-01-07T13:19:20;9.38;;;3.13;;
35959;SDS011;22043;50.970;7.192;2024-01-07T13:21:45;8.77;;;2.95;;
35959;SDS011;22043;50.970;7.192;2024-01-07T13:24:11;7.70;;;3.22;;
35959;SDS011;22043;50.970;7.192;2024-01-07T13:26:36;6.15;;;2.88;;
35959;SDS011;22043;50.970;7.192;2024-01-07T13:29:02;6.93;;;3.40;;
35959;SDS011;22043;50.970;7.192;2024-01-07T13:31:28;7.47;;;3.00;;
35959;SDS011;22043;50.970;7.192;2024-01-07T13:33:54;7.53;;;2.78;;
35959;SDS011;22043;50.970;7.192;2024-01-07T13:36:20;8.90;;;3.92;;
35959;SDS011;22043;50.970;7.192;2024-01-07T13:38:45;8.50;;;2.92;;
35959;SDS011;22043;50.970;7.192;2024-01-07T13:41:15;6.32;;;2.97;;
35959;SDS011;22043;50.970;7.192;2024-01-07T13:43:41;7.13;;;3.30;;
35959;SDS011;22043;50.970;7.192;2024-01-07T13:46:06;6.32;;;2.60;;
35959;SDS011;22043;50.970;7.192;2024-01-07T13:48:32;7.80;;;3.08;;
35959;SDS011;22043;50.970;7.192;2024-01-07T13:50:58;6.97;;;3.10;;
35959;SDS011;22043;50.970;7.192;2024-01-07T13:53:23;6.18;;;3.28;;
35959;SDS011;22043;50.970;7.192;2024-01-07T13:55:49;7.03;;;3.28;;
35959;SDS011;22043;50.970;7.192;2024-01-07T13:58:14;6.28;;;3.22;;
35959;SDS011;22043;50.970;7.192;2024-01-07T14:00:40;6.38;;;3.00;;
35959;SDS011;22043;50.970;7.192;2024-01-07T14:03:06;4.82;;;2.55;;
35959;SDS011;22043;50.970;7.192;2024-01-07T14:05:33;8.13;;;3.33;;
35959;SDS011;22043;50.970;7.192;2024-01-07T14:07:58;5.45;;;2.90;;
35959;SDS011;22043;50.970;7.192;2024-01-07T14:10:24;6.78;;;3.00;;
35959;SDS011;22043;50.970;7.192;2024-01-07T14:12:49;5.18;;;2.83;;
35959;SDS011;22043;50.970;7.192;2024-01-07T14:15:15;5.88;;;3.50;;
35959;SDS011;22043;50.970;7.192;2024-01-07T14:20:08;4.53;;;2.38;;
35959;SDS011;22043;50.970;7.192;2024-01-07T14:22:35;5.60;;;2.70;;
35959;SDS011;22043;50.970;7.192;2024-01-07T14:25:00;5.50;;;2.70;;
35959;SDS011;22043;50.970;7.192;2024-01-07T14:27:26;7.90;;;3.40;;
35959;SDS011;22043;50.970;7.192;2024-01-07T14:29:52;5.75;;;3.03;;
35959;SDS011;22043;50.970;7.192;2024-01-07T14:32:20;6.47;;;2.90;;
35959;SDS011;22043;50.970;7.192;2024-01-07T14:34:46;6.50;;;2.97;;
35959;SDS011;22043;50.970;7.192;2024-01-07T14:37:14;5.38;;;2.95;;
35959;SDS011;22043;50.970;7.192;2024-01-07T14:39:39;7.32;;;3.20;;